sensor_id;sensor_type;location;lat;lon;timestamp;temperature;humidity
55648;DHT22;45266;48.756;9.246;2022-11-11T00:00:35;3.50;99.90
55648;DHT22;45266;48.756;9.246;2022-11-11T00:01:37;3.50;99.90
55648;DHT22;45266;48.756;9.246;2022-11-11T00:02:38;3.50;99.90
55648;DHT22;45266;48.756;9.246;2022-11-11T00:03:41;3.40;99.90
55648;DHT22;45266;48.756;9.246;2022-11-11T00:04:43;3.40;99.90
55648;DHT22;45266;48.756;9.246;2022-11-11T00:05:44;3.20;99.90
55648;DHT22;45266;48.756;9.246;2022-11-11T00:06:46;3.40;99.90
55648;DHT22;45266;48.756;9.246;2022-11-11T00:07:48;3.40;99.90
55648;DHT22;45266;48.756;9.246;2022-11-11T00:08:52;3.40;99.90
55648;DHT22;45266;48.756;9.246;2022-11-11T00:09:54;3.40;99.90
55648;DHT22;45266;48.756;9.246;2022-11-11T00:11:00;3.30;99.90
55648;DHT22;45266;48.756;9.246;2022-11-11T00:12:02;3.40;99.90
55648;DHT22;45266;48.756;9.246;2022-11-11T00:13:04;3.30;99.90
55648;DHT22;45266;48.756;9.246;2022-11-11T00:14:06;3.30;99.90
55648;DHT22;45266;48.756;9.246;2022-11-11T00:15:08;3.30;99.90
55648;DHT22;45266;48.756;9.246;2022-11-11T00:16:18;3.30;99.90
55648;DHT22;45266;48.756;9.246;2022-11-11T00:17:20;3.30;99.90
55648;DHT22;45266;48.756;9.246;2022-11-11T00:18:41;3.30;99.90
55648;DHT22;45266;48.756;9.246;2022-11-11T00:20:02;3.20;99.90
55648;DHT22;45266;48.756;9.246;2022-11-11T00:21:26;3.20;99.90
55648;DHT22;45266;48.756;9.246;2022-11-11T00:22:27;3.20;99.90
55648;DHT22;45266;48.756;9.246;2022-11-11T00:23:48;3.20;99.90
55648;DHT22;45266;48.756;9.246;2022-11-11T00:25:09;3.20;99.90
55648;DHT22;45266;48.756;9.246;2022-11-11T00:26:13;3.20;99.90
55648;DHT22;45266;48.756;9.246;2022-11-11T00:27:37;3.20;99.90
55648;DHT22;45266;48.756;9.246;2022-11-11T00:28:40;3.20;99.90
55648;DHT22;45266;48.756;9.246;2022-11-11T00:29:45;3.20;99.90
55648;DHT22;45266;48.756;9.246;2022-11-11T00:30:47;3.20;99.90
55648;DHT22;45266;48.756;9.246;2022-11-11T00:31:49;3.10;99.90
55648;DHT22;45266;48.756;9.246;2022-11-11T00:33:09;3.10;99.90
55648;DHT22;45266;48.756;9.246;2022-11-11T00:34:11;3.10;99.90
55648;DHT22;45266;48.756;9.246;2022-11-11T00:35:13;3.10;99.90
55648;DHT22;45266;48.756;9.246;2022-11-11T00:36:33;3.10;99.90
55648;DHT22;45266;48.756;9.246;2022-11-11T00:37:35;3.10;99.90
55648;DHT22;45266;48.756;9.246;2022-11-11T00:38:37;3.10;99.90
55648;DHT22;45266;48.756;9.246;2022-11-11T00:39:50;3.10;99.90
55648;DHT22;45266;48.756;9.246;2022-11-11T00:40:52;3.10;99.90
55648;DHT22;45266;48.756;9.246;2022-11-11T00:41:53;3.10;99.90
55648;DHT22;45266;48.756;9.246;2022-11-11T00:42:55;3.10;99.90
55648;DHT22;45266;48.756;9.246;2022-11-11T00:43:57;3.10;99.90
55648;DHT22;45266;48.756;9.246;2022-11-11T00:44:58;3.10;99.90
55648;DHT22;45266;48.756;9.246;2022-11-11T00:46:01;3.10;99.90
55648;DHT22;45266;48.756;9.246;2022-11-11T00:47:21;3.10;99.90
55648;DHT22;45266;48.756;9.246;2022-11-11T00:48:42;3.10;99.90
55648;DHT22;45266;48.756;9.246;2022-11-11T00:50:13;3.10;99.90
55648;DHT22;45266;48.756;9.246;2022-11-11T00:51:33;3.10;99.90
55648;DHT22;45266;48.756;9.246;2022-11-11T00:52:35;3.10;99.90
55648;DHT22;45266;48.756;9.246;2022-11-11T00:53:37;3.00;99.90
55648;DHT22;45266;48.756;9.246;2022-11-11T00:54:41;3.00;99.90
55648;DHT22;45266;48.756;9.246;2022-11-11T00:55:42;3.00;99.90
55648;DHT22;45266;48.756;9.246;2022-11-11T00:56:44;3.00;99.90
55648;DHT22;45266;48.756;9.246;2022-11-11T00:57:46;3.00;99.90
55648;DHT22;45266;48.756;9.246;2022-11-11T00:58:48;3.00;99.90
55648;DHT22;45266;48.756;9.246;2022-11-11T00:59:50;3.00;99.90
55648;DHT22;45266;48.756;9.246;2022-11-11T01:00:52;3.00;99.90
55648;DHT22;45266;48.756;9.246;2022-11-11T01:01:54;3.10;99.90
55648;DHT22;45266;48.756;9.246;2022-11-11T01:02:57;3.00;99.90
55648;DHT22;45266;48.756;9.246;2022-11-11T01:03:59;3.00;99.90
55648;DHT22;45266;48.756;9.246;2022-11-11T01:05:01;3.00;99.90
55648;DHT22;45266;48.756;9.246;2022-11-11T01:06:03;3.00;99.90
55648;DHT22;45266;48.756;9.246;2022-11-11T01:07:05;3.00;99.90
55648;DHT22;45266;48.756;9.246;2022-11-11T01:08:07;3.00;99.90
55648;DHT22;45266;48.756;9.246;2022-11-11T01:09:09;3.00;99.90
55648;DHT22;45266;48.756;9.246;2022-11-11T01:10:11;3.00;99.90
55648;DHT22;45266;48.756;9.246;2022-11-11T01:11:15;3.00;99.90
55648;DHT22;45266;48.756;9.246;2022-11-11T01:12:17;3.00;99.90
55648;DHT22;45266;48.756;9.246;2022-11-11T01:13:27;3.00;99.90
55648;DHT22;45266;48.756;9.246;2022-11-11T01:14:29;3.00;99.90
55648;DHT22;45266;48.756;9.246;2022-11-11T01:15:34;3.00;99.90
55648;DHT22;45266;48.756;9.246;2022-11-11T01:16:36;3.00;99.90
55648;DHT22;45266;48.756;9.246;2022-11-11T01:17:38;3.00;99.90
55648;DHT22;45266;48.756;9.246;2022-11-11T01:18:41;3.00;99.90
55648;DHT22;45266;48.756;9.246;2022-11-11T01:19:42;3.00;99.90
55648;DHT22;45266;48.756;9.246;2022-11-11T01:20:45;3.00;99.90
55648;DHT22;45266;48.756;9.246;2022-11-11T01:21:47;3.00;99.90
55648;DHT22;45266;48.756;9.246;2022-11-11T01:22:49;3.10;99.90
55648;DHT22;45266;48.756;9.246;2022-11-11T01:23:52;3.10;99.90
55648;DHT22;45266;48.756;9.246;2022-11-11T01:24:54;3.10;99.90
55648;DHT22;45266;48.756;9.246;2022-11-11T01:26:08;3.10;99.90
55648;DHT22;45266;48.756;9.246;2022-11-11T01:27:11;3.10;99.90
55648;DHT22;45266;48.756;9.246;2022-11-11T01:28:13;3.10;99.90
55648;DHT22;45266;48.756;9.246;2022-11-11T01:29:15;3.20;99.90
55648;DHT22;45266;48.756;9.246;2022-11-11T01:30:17;3.10;99.90
55648;DHT22;45266;48.756;9.246;2022-11-11T01:31:20;3.20;99.90
55648;DHT22;45266;48.756;9.246;2022-11-11T01:32:23;3.10;99.90
55648;DHT22;45266;48.756;9.246;2022-11-11T01:33:25;3.10;99.90
55648;DHT22;45266;48.756;9.246;2022-11-11T01:34:26;3.10;99.90
55648;DHT22;45266;48.756;9.246;2022-11-11T01:35:28;3.10;99.90
55648;DHT22;45266;48.756;9.246;2022-11-11T01:36:30;3.10;99.90
55648;DHT22;45266;48.756;9.246;2022-11-11T01:37:33;3.10;99.90
55648;DHT22;45266;48.756;9.246;2022-11-11T01:38:36;3.00;99.90
55648;DHT22;45266;48.756;9.246;2022-11-11T01:39:38;3.00;99.90
55648;DHT22;45266;48.756;9.246;2022-11-11T01:40:42;3.10;99.90
55648;DHT22;45266;48.756;9.246;2022-11-11T01:41:44;3.00;99.90
55648;DHT22;45266;48.756;9.246;2022-11-11T01:43:16;3.10;99.90
55648;DHT22;45266;48.756;9.246;2022-11-11T01:44:42;3.00;99.90
55648;DHT22;45266;48.756;9.246;2022-11-11T01:45:55;2.90;99.90
55648;DHT22;45266;48.756;9.246;2022-11-11T01:47:03;2.90;99.90
55648;DHT22;45266;48.756;9.246;2022-11-11T01:48:07;3.00;99.90
55648;DHT22;45266;48.756;9.246;2022-11-11T01:50:07;2.90;99.90
55648;DHT22;45266;48.756;9.246;2022-11-11T01:51:17;2.90;99.90
55648;DHT22;45266;48.756;9.246;2022-11-11T01:52:38;2.90;99.90
55648;DHT22;45266;48.756;9.246;2022-11-11T01:53:41;2.90;99.90
55648;DHT22;45266;48.756;9.246;2022-11-11T01:54:49;2.90;99.90
55648;DHT22;45266;48.756;9.246;2022-11-11T01:55:53;2.90;99.90
55648;DHT22;45266;48.756;9.246;2022-11-11T01:57:00;2.90;99.90
55648;DHT22;45266;48.756;9.246;2022-11-11T01:58:06;2.90;99.90
55648;DHT22;45266;48.756;9.246;2022-11-11T01:59:12;2.90;99.90
55648;DHT22;45266;48.756;9.246;2022-11-11T02:00:17;2.80;99.90
55648;DHT22;45266;48.756;9.246;2022-11-11T02:01:19;2.80;99.90
55648;DHT22;45266;48.756;9.246;2022-11-11T02:03:42;2.80;99.90
55648;DHT22;45266;48.756;9.246;2022-11-11T02:05:09;2.70;99.90
55648;DHT22;45266;48.756;9.246;2022-11-11T02:06:30;2.80;99.90
55648;DHT22;45266;48.756;9.246;2022-11-11T02:07:33;2.80;99.90
55648;DHT22;45266;48.756;9.246;2022-11-11T02:08:36;2.70;99.90
55648;DHT22;45266;48.756;9.246;2022-11-11T02:09:42;2.70;99.90
55648;DHT22;45266;48.756;9.246;2022-11-11T02:10:45;2.70;99.90
55648;DHT22;45266;48.756;9.246;2022-11-11T02:11:49;2.70;99.90
55648;DHT22;45266;48.756;9.246;2022-11-11T02:13:14;2.60;99.90
55648;DHT22;45266;48.756;9.246;2022-11-11T02:14:41;2.60;99.90
55648;DHT22;45266;48.756;9.246;2022-11-11T02:15:44;2.60;99.90
55648;DHT22;45266;48.756;9.246;2022-11-11T02:16:46;2.50;99.90
55648;DHT22;45266;48.756;9.246;2022-11-11T02:17:48;2.60;99.90
55648;DHT22;45266;48.756;9.246;2022-11-11T02:18:51;2.60;99.90
55648;DHT22;45266;48.756;9.246;2022-11-11T02:19:55;2.60;99.90
55648;DHT22;45266;48.756;9.246;2022-11-11T02:20:58;2.60;99.90
55648;DHT22;45266;48.756;9.246;2022-11-11T02:22:00;2.60;99.90
55648;DHT22;45266;48.756;9.246;2022-11-11T02:24:14;2.60;99.90
55648;DHT22;45266;48.756;9.246;2022-11-11T02:25:21;2.70;99.90
55648;DHT22;45266;48.756;9.246;2022-11-11T02:26:24;2.70;99.90
55648;DHT22;45266;48.756;9.246;2022-11-11T02:27:28;2.70;99.90
55648;DHT22;45266;48.756;9.246;2022-11-11T02:28:31;2.80;99.90
55648;DHT22;45266;48.756;9.246;2022-11-11T02:29:34;2.80;99.90
55648;DHT22;45266;48.756;9.246;2022-11-11T02:30:37;2.80;99.90
55648;DHT22;45266;48.756;9.246;2022-11-11T02:31:39;2.80;99.90
55648;DHT22;45266;48.756;9.246;2022-11-11T02:32:48;2.80;99.90
55648;DHT22;45266;48.756;9.246;2022-11-11T02:33:50;2.80;99.90
55648;DHT22;45266;48.756;9.246;2022-11-11T02:34:52;2.70;99.90
55648;DHT22;45266;48.756;9.246;2022-11-11T02:35:55;2.70;99.90
55648;DHT22;45266;48.756;9.246;2022-11-11T02:37:00;2.70;99.90
55648;DHT22;45266;48.756;9.246;2022-11-11T02:38:05;2.70;99.90
55648;DHT22;45266;48.756;9.246;2022-11-11T02:39:09;2.70;99.90
55648;DHT22;45266;48.756;9.246;2022-11-11T02:40:17;2.70;99.90
55648;DHT22;45266;48.756;9.246;2022-11-11T02:41:19;2.60;99.90
55648;DHT22;45266;48.756;9.246;2022-11-11T02:42:40;2.60;99.90
55648;DHT22;45266;48.756;9.246;2022-11-11T02:43:42;2.60;99.90
55648;DHT22;45266;48.756;9.246;2022-11-11T02:44:44;2.60;99.90
55648;DHT22;45266;48.756;9.246;2022-11-11T02:45:45;2.60;99.90
55648;DHT22;45266;48.756;9.246;2022-11-11T02:46:47;2.60;99.90
55648;DHT22;45266;48.756;9.246;2022-11-11T02:47:49;2.60;99.90
55648;DHT22;45266;48.756;9.246;2022-11-11T02:48:51;2.50;99.90
55648;DHT22;45266;48.756;9.246;2022-11-11T02:49:53;2.50;99.90
55648;DHT22;45266;48.756;9.246;2022-11-11T02:50:55;2.50;99.90
55648;DHT22;45266;48.756;9.246;2022-11-11T02:51:57;2.50;99.90
55648;DHT22;45266;48.756;9.246;2022-11-11T02:52:59;2.50;99.90
55648;DHT22;45266;48.756;9.246;2022-11-11T02:54:01;2.40;99.90
55648;DHT22;45266;48.756;9.246;2022-11-11T02:55:03;2.40;99.90
55648;DHT22;45266;48.756;9.246;2022-11-11T02:56:05;2.40;99.90
55648;DHT22;45266;48.756;9.246;2022-11-11T02:57:07;2.40;99.90
55648;DHT22;45266;48.756;9.246;2022-11-11T02:58:09;2.30;99.90
55648;DHT22;45266;48.756;9.246;2022-11-11T02:59:12;2.30;99.90
55648;DHT22;45266;48.756;9.246;2022-11-11T03:00:15;2.30;99.90
55648;DHT22;45266;48.756;9.246;2022-11-11T03:01:17;2.30;99.90
55648;DHT22;45266;48.756;9.246;2022-11-11T03:02:25;2.30;99.90
55648;DHT22;45266;48.756;9.246;2022-11-11T03:03:28;2.40;99.90
55648;DHT22;45266;48.756;9.246;2022-11-11T03:04:31;2.40;99.90
55648;DHT22;45266;48.756;9.246;2022-11-11T03:05:33;2.30;99.90
55648;DHT22;45266;48.756;9.246;2022-11-11T03:06:35;2.40;99.90
55648;DHT22;45266;48.756;9.246;2022-11-11T03:07:37;2.40;99.90
55648;DHT22;45266;48.756;9.246;2022-11-11T03:08:39;2.40;99.90
55648;DHT22;45266;48.756;9.246;2022-11-11T03:09:40;2.40;99.90
55648;DHT22;45266;48.756;9.246;2022-11-11T03:10:42;2.40;99.90
55648;DHT22;45266;48.756;9.246;2022-11-11T03:11:44;2.50;99.90
55648;DHT22;45266;48.756;9.246;2022-11-11T03:12:46;2.40;99.90
55648;DHT22;45266;48.756;9.246;2022-11-11T03:13:48;2.40;99.90
55648;DHT22;45266;48.756;9.246;2022-11-11T03:14:50;2.40;99.90
55648;DHT22;45266;48.756;9.246;2022-11-11T03:15:52;2.40;99.90
55648;DHT22;45266;48.756;9.246;2022-11-11T03:16:53;2.40;99.90
55648;DHT22;45266;48.756;9.246;2022-11-11T03:18:14;2.50;99.90
55648;DHT22;45266;48.756;9.246;2022-11-11T03:19:16;2.50;99.90
55648;DHT22;45266;48.756;9.246;2022-11-11T03:20:18;2.50;99.90
55648;DHT22;45266;48.756;9.246;2022-11-11T03:21:39;2.50;99.90
55648;DHT22;45266;48.756;9.246;2022-11-11T03:23:07;2.40;99.90
55648;DHT22;45266;48.756;9.246;2022-11-11T03:24:10;2.40;99.90
55648;DHT22;45266;48.756;9.246;2022-11-11T03:25:12;2.40;99.90
55648;DHT22;45266;48.756;9.246;2022-11-11T03:26:32;2.40;99.90
55648;DHT22;45266;48.756;9.246;2022-11-11T03:27:34;2.40;99.90
55648;DHT22;45266;48.756;9.246;2022-11-11T03:28:35;2.40;99.90
55648;DHT22;45266;48.756;9.246;2022-11-11T03:29:37;2.50;99.90
55648;DHT22;45266;48.756;9.246;2022-11-11T03:30:41;2.50;99.90
55648;DHT22;45266;48.756;9.246;2022-11-11T03:31:44;2.50;99.90
55648;DHT22;45266;48.756;9.246;2022-11-11T03:32:46;2.40;99.90
55648;DHT22;45266;48.756;9.246;2022-11-11T03:33:48;2.40;99.90
55648;DHT22;45266;48.756;9.246;2022-11-11T03:34:50;2.40;99.90
55648;DHT22;45266;48.756;9.246;2022-11-11T03:35:51;2.40;99.90
55648;DHT22;45266;48.756;9.246;2022-11-11T03:36:53;2.40;99.90
55648;DHT22;45266;48.756;9.246;2022-11-11T03:38:14;2.40;99.90
55648;DHT22;45266;48.756;9.246;2022-11-11T03:39:33;2.40;99.90
55648;DHT22;45266;48.756;9.246;2022-11-11T03:40:35;2.40;99.90
55648;DHT22;45266;48.756;9.246;2022-11-11T03:41:36;2.40;99.90
55648;DHT22;45266;48.756;9.246;2022-11-11T03:42:38;2.40;99.90
55648;DHT22;45266;48.756;9.246;2022-11-11T03:43:42;2.40;99.90
55648;DHT22;45266;48.756;9.246;2022-11-11T03:44:44;2.40;99.90
55648;DHT22;45266;48.756;9.246;2022-11-11T03:45:46;2.40;99.90
55648;DHT22;45266;48.756;9.246;2022-11-11T03:46:48;2.40;99.90
55648;DHT22;45266;48.756;9.246;2022-11-11T03:47:49;2.40;99.90
55648;DHT22;45266;48.756;9.246;2022-11-11T03:48:51;2.40;99.90
55648;DHT22;45266;48.756;9.246;2022-11-11T03:49:53;2.40;99.90
55648;DHT22;45266;48.756;9.246;2022-11-11T03:50:54;2.50;99.90
55648;DHT22;45266;48.756;9.246;2022-11-11T03:51:56;2.40;99.90
55648;DHT22;45266;48.756;9.246;2022-11-11T03:52:58;2.50;99.90
55648;DHT22;45266;48.756;9.246;2022-11-11T03:54:00;2.50;99.90
55648;DHT22;45266;48.756;9.246;2022-11-11T03:55:01;2.50;99.90
55648;DHT22;45266;48.756;9.246;2022-11-11T03:56:03;2.50;99.90
55648;DHT22;45266;48.756;9.246;2022-11-11T03:57:05;2.50;99.90
55648;DHT22;45266;48.756;9.246;2022-11-11T03:58:25;2.50;99.90
55648;DHT22;45266;48.756;9.246;2022-11-11T03:59:27;2.50;99.90
55648;DHT22;45266;48.756;9.246;2022-11-11T04:00:29;2.50;99.90
55648;DHT22;45266;48.756;9.246;2022-11-11T04:01:31;2.50;99.90
55648;DHT22;45266;48.756;9.246;2022-11-11T04:02:51;2.60;99.90
55648;DHT22;45266;48.756;9.246;2022-11-11T04:04:20;2.60;99.90
55648;DHT22;45266;48.756;9.246;2022-11-11T04:05:40;2.60;99.90
55648;DHT22;45266;48.756;9.246;2022-11-11T04:07:01;2.60;99.90
55648;DHT22;45266;48.756;9.246;2022-11-11T04:08:21;2.60;99.90
55648;DHT22;45266;48.756;9.246;2022-11-11T04:09:42;2.50;99.90
55648;DHT22;45266;48.756;9.246;2022-11-11T04:11:11;2.50;99.90
55648;DHT22;45266;48.756;9.246;2022-11-11T04:12:14;2.50;99.90
55648;DHT22;45266;48.756;9.246;2022-11-11T04:13:16;2.40;99.90
55648;DHT22;45266;48.756;9.246;2022-11-11T04:14:37;2.40;99.90
55648;DHT22;45266;48.756;9.246;2022-11-11T04:15:57;2.40;99.90
55648;DHT22;45266;48.756;9.246;2022-11-11T04:17:08;2.40;99.90
55648;DHT22;45266;48.756;9.246;2022-11-11T04:18:10;2.40;99.90
55648;DHT22;45266;48.756;9.246;2022-11-11T04:19:11;2.40;99.90
55648;DHT22;45266;48.756;9.246;2022-11-11T04:20:32;2.40;99.90
55648;DHT22;45266;48.756;9.246;2022-11-11T04:21:53;2.40;99.90
55648;DHT22;45266;48.756;9.246;2022-11-11T04:22:55;2.40;99.90
55648;DHT22;45266;48.756;9.246;2022-11-11T04:23:56;2.30;99.90
55648;DHT22;45266;48.756;9.246;2022-11-11T04:24:58;2.30;99.90
55648;DHT22;45266;48.756;9.246;2022-11-11T04:26:18;2.30;99.90
55648;DHT22;45266;48.756;9.246;2022-11-11T04:27:20;2.30;99.90
55648;DHT22;45266;48.756;9.246;2022-11-11T04:28:22;2.40;99.90
55648;DHT22;45266;48.756;9.246;2022-11-11T04:29:42;2.30;99.90
55648;DHT22;45266;48.756;9.246;2022-11-11T04:30:44;2.30;99.90
55648;DHT22;45266;48.756;9.246;2022-11-11T04:31:46;2.30;99.90
55648;DHT22;45266;48.756;9.246;2022-11-11T04:33:06;2.30;99.90
55648;DHT22;45266;48.756;9.246;2022-11-11T04:34:08;2.30;99.90
55648;DHT22;45266;48.756;9.246;2022-11-11T04:35:11;2.20;99.90
55648;DHT22;45266;48.756;9.246;2022-11-11T04:36:13;2.20;99.90
55648;DHT22;45266;48.756;9.246;2022-11-11T04:37:15;2.20;99.90
55648;DHT22;45266;48.756;9.246;2022-11-11T04:38:17;2.20;99.90
55648;DHT22;45266;48.756;9.246;2022-11-11T04:39:38;2.10;99.90
55648;DHT22;45266;48.756;9.246;2022-11-11T04:40:58;2.20;99.90
55648;DHT22;45266;48.756;9.246;2022-11-11T04:42:06;2.20;99.90
55648;DHT22;45266;48.756;9.246;2022-11-11T04:43:09;2.20;99.90
55648;DHT22;45266;48.756;9.246;2022-11-11T04:44:11;2.20;99.90
55648;DHT22;45266;48.756;9.246;2022-11-11T04:45:32;2.20;99.90
55648;DHT22;45266;48.756;9.246;2022-11-11T04:46:36;2.20;99.90
55648;DHT22;45266;48.756;9.246;2022-11-11T04:47:50;2.20;99.90
55648;DHT22;45266;48.756;9.246;2022-11-11T04:48:52;2.20;99.90
55648;DHT22;45266;48.756;9.246;2022-11-11T04:49:54;2.20;99.90
55648;DHT22;45266;48.756;9.246;2022-11-11T04:50:56;2.20;99.90
55648;DHT22;45266;48.756;9.246;2022-11-11T04:51:57;2.20;99.90
55648;DHT22;45266;48.756;9.246;2022-11-11T04:53:18;2.20;99.90
55648;DHT22;45266;48.756;9.246;2022-11-11T04:54:20;2.20;99.90
55648;DHT22;45266;48.756;9.246;2022-11-11T04:55:22;2.20;99.90
55648;DHT22;45266;48.756;9.246;2022-11-11T04:56:43;2.20;99.90
55648;DHT22;45266;48.756;9.246;2022-11-11T04:57:51;2.10;99.90
55648;DHT22;45266;48.756;9.246;2022-11-11T04:58:53;2.10;99.90
55648;DHT22;45266;48.756;9.246;2022-11-11T05:00:16;2.10;99.90
55648;DHT22;45266;48.756;9.246;2022-11-11T05:01:18;2.10;99.90
55648;DHT22;45266;48.756;9.246;2022-11-11T05:02:40;2.10;99.90
55648;DHT22;45266;48.756;9.246;2022-11-11T05:04:00;2.10;99.90
55648;DHT22;45266;48.756;9.246;2022-11-11T05:05:02;2.10;99.90
55648;DHT22;45266;48.756;9.246;2022-11-11T05:06:04;2.10;99.90
55648;DHT22;45266;48.756;9.246;2022-11-11T05:07:24;2.10;99.90
55648;DHT22;45266;48.756;9.246;2022-11-11T05:08:47;2.10;99.90
55648;DHT22;45266;48.756;9.246;2022-11-11T05:09:59;2.10;99.90
55648;DHT22;45266;48.756;9.246;2022-11-11T05:11:01;2.10;99.90
55648;DHT22;45266;48.756;9.246;2022-11-11T05:12:03;2.10;99.90
55648;DHT22;45266;48.756;9.246;2022-11-11T05:13:05;2.00;99.90
55648;DHT22;45266;48.756;9.246;2022-11-11T05:14:26;2.00;99.90
55648;DHT22;45266;48.756;9.246;2022-11-11T05:15:46;2.10;99.90
55648;DHT22;45266;48.756;9.246;2022-11-11T05:17:08;2.00;99.90
55648;DHT22;45266;48.756;9.246;2022-11-11T05:18:29;2.00;99.90
55648;DHT22;45266;48.756;9.246;2022-11-11T05:19:49;2.00;99.90
55648;DHT22;45266;48.756;9.246;2022-11-11T05:21:22;2.00;99.90
55648;DHT22;45266;48.756;9.246;2022-11-11T05:22:29;2.00;99.90
55648;DHT22;45266;48.756;9.246;2022-11-11T05:23:31;2.00;99.90
55648;DHT22;45266;48.756;9.246;2022-11-11T05:24:51;2.00;99.90
55648;DHT22;45266;48.756;9.246;2022-11-11T05:26:12;2.00;99.90
55648;DHT22;45266;48.756;9.246;2022-11-11T05:27:14;2.00;99.90
55648;DHT22;45266;48.756;9.246;2022-11-11T05:28:15;2.00;99.90
55648;DHT22;45266;48.756;9.246;2022-11-11T05:29:17;2.00;99.90
55648;DHT22;45266;48.756;9.246;2022-11-11T05:30:20;2.00;99.90
55648;DHT22;45266;48.756;9.246;2022-11-11T05:31:22;2.00;99.90
55648;DHT22;45266;48.756;9.246;2022-11-11T05:32:25;2.00;99.90
55648;DHT22;45266;48.756;9.246;2022-11-11T05:33:26;2.00;99.90
55648;DHT22;45266;48.756;9.246;2022-11-11T05:34:28;2.00;99.90
55648;DHT22;45266;48.756;9.246;2022-11-11T05:35:30;2.00;99.90
55648;DHT22;45266;48.756;9.246;2022-11-11T05:36:31;2.00;99.90
55648;DHT22;45266;48.756;9.246;2022-11-11T05:37:34;2.00;99.90
55648;DHT22;45266;48.756;9.246;2022-11-11T05:38:36;2.00;99.90
55648;DHT22;45266;48.756;9.246;2022-11-11T05:39:38;2.00;99.90
55648;DHT22;45266;48.756;9.246;2022-11-11T05:40:39;2.00;99.90
55648;DHT22;45266;48.756;9.246;2022-11-11T05:41:41;2.00;99.90
55648;DHT22;45266;48.756;9.246;2022-11-11T05:42:43;2.00;99.90
55648;DHT22;45266;48.756;9.246;2022-11-11T05:43:52;2.00;99.90
55648;DHT22;45266;48.756;9.246;2022-11-11T05:44:54;2.00;99.90
55648;DHT22;45266;48.756;9.246;2022-11-11T05:45:56;2.00;99.90
55648;DHT22;45266;48.756;9.246;2022-11-11T05:46:58;2.00;99.90
55648;DHT22;45266;48.756;9.246;2022-11-11T05:48:01;2.10;99.90
55648;DHT22;45266;48.756;9.246;2022-11-11T05:49:03;2.10;99.90
55648;DHT22;45266;48.756;9.246;2022-11-11T05:50:17;2.10;99.90
55648;DHT22;45266;48.756;9.246;2022-11-11T05:51:18;2.10;99.90
55648;DHT22;45266;48.756;9.246;2022-11-11T05:52:28;2.10;99.90
55648;DHT22;45266;48.756;9.246;2022-11-11T05:53:30;2.10;99.90
55648;DHT22;45266;48.756;9.246;2022-11-11T05:54:34;2.10;99.90
55648;DHT22;45266;48.756;9.246;2022-11-11T05:55:36;2.10;99.90
55648;DHT22;45266;48.756;9.246;2022-11-11T05:56:38;2.10;99.90
55648;DHT22;45266;48.756;9.246;2022-11-11T05:57:40;2.10;99.90
55648;DHT22;45266;48.756;9.246;2022-11-11T05:58:42;2.10;99.90
55648;DHT22;45266;48.756;9.246;2022-11-11T05:59:50;2.10;99.90
55648;DHT22;45266;48.756;9.246;2022-11-11T06:00:51;2.20;99.90
55648;DHT22;45266;48.756;9.246;2022-11-11T06:01:54;2.10;99.90
55648;DHT22;45266;48.756;9.246;2022-11-11T06:03:03;2.10;99.90
55648;DHT22;45266;48.756;9.246;2022-11-11T06:04:06;2.10;99.90
55648;DHT22;45266;48.756;9.246;2022-11-11T06:05:08;2.10;99.90
55648;DHT22;45266;48.756;9.246;2022-11-11T06:06:11;2.10;99.90
55648;DHT22;45266;48.756;9.246;2022-11-11T06:07:12;2.10;99.90
55648;DHT22;45266;48.756;9.246;2022-11-11T06:08:14;2.10;99.90
55648;DHT22;45266;48.756;9.246;2022-11-11T06:09:16;2.10;99.90
55648;DHT22;45266;48.756;9.246;2022-11-11T06:10:18;2.10;99.90
55648;DHT22;45266;48.756;9.246;2022-11-11T06:11:32;2.10;99.90
55648;DHT22;45266;48.756;9.246;2022-11-11T06:12:33;2.10;99.90
55648;DHT22;45266;48.756;9.246;2022-11-11T06:13:55;2.10;99.90
55648;DHT22;45266;48.756;9.246;2022-11-11T06:14:57;2.10;99.90
55648;DHT22;45266;48.756;9.246;2022-11-11T06:15:59;2.10;99.90
55648;DHT22;45266;48.756;9.246;2022-11-11T06:17:01;2.10;99.90
55648;DHT22;45266;48.756;9.246;2022-11-11T06:18:04;2.10;99.90
55648;DHT22;45266;48.756;9.246;2022-11-11T06:19:06;2.00;99.90
55648;DHT22;45266;48.756;9.246;2022-11-11T06:20:08;2.00;99.90
55648;DHT22;45266;48.756;9.246;2022-11-11T06:21:10;2.10;99.90
55648;DHT22;45266;48.756;9.246;2022-11-11T06:22:12;2.10;99.90
55648;DHT22;45266;48.756;9.246;2022-11-11T06:23:14;2.10;99.90
55648;DHT22;45266;48.756;9.246;2022-11-11T06:24:16;2.10;99.90
55648;DHT22;45266;48.756;9.246;2022-11-11T06:25:18;2.10;99.90
55648;DHT22;45266;48.756;9.246;2022-11-11T06:26:38;2.10;99.90
55648;DHT22;45266;48.756;9.246;2022-11-11T06:27:40;2.10;99.90
55648;DHT22;45266;48.756;9.246;2022-11-11T06:29:45;2.10;99.90
55648;DHT22;45266;48.756;9.246;2022-11-11T06:30:47;2.10;99.90
55648;DHT22;45266;48.756;9.246;2022-11-11T06:31:51;2.10;99.90
55648;DHT22;45266;48.756;9.246;2022-11-11T06:32:54;2.10;99.90
55648;DHT22;45266;48.756;9.246;2022-11-11T06:33:55;2.10;99.90
55648;DHT22;45266;48.756;9.246;2022-11-11T06:34:57;2.10;99.90
55648;DHT22;45266;48.756;9.246;2022-11-11T06:35:59;2.10;99.90
55648;DHT22;45266;48.756;9.246;2022-11-11T06:37:00;2.10;99.90
55648;DHT22;45266;48.756;9.246;2022-11-11T06:38:03;2.10;99.90
55648;DHT22;45266;48.756;9.246;2022-11-11T06:39:05;2.10;99.90
55648;DHT22;45266;48.756;9.246;2022-11-11T06:40:08;2.10;99.90
55648;DHT22;45266;48.756;9.246;2022-11-11T06:41:11;2.10;99.90
55648;DHT22;45266;48.756;9.246;2022-11-11T06:42:13;2.20;99.90
55648;DHT22;45266;48.756;9.246;2022-11-11T06:43:15;2.10;99.90
55648;DHT22;45266;48.756;9.246;2022-11-11T06:44:16;2.10;99.90
55648;DHT22;45266;48.756;9.246;2022-11-11T06:45:18;2.10;99.90
55648;DHT22;45266;48.756;9.246;2022-11-11T06:46:22;2.10;99.90
55648;DHT22;45266;48.756;9.246;2022-11-11T06:47:24;2.10;99.90
55648;DHT22;45266;48.756;9.246;2022-11-11T06:48:28;2.10;99.90
55648;DHT22;45266;48.756;9.246;2022-11-11T06:49:29;2.20;99.90
55648;DHT22;45266;48.756;9.246;2022-11-11T06:50:32;2.20;99.90
55648;DHT22;45266;48.756;9.246;2022-11-11T06:51:34;2.20;99.90
55648;DHT22;45266;48.756;9.246;2022-11-11T06:52:36;2.20;99.90
55648;DHT22;45266;48.756;9.246;2022-11-11T06:53:37;2.20;99.90
55648;DHT22;45266;48.756;9.246;2022-11-11T06:54:39;2.20;99.90
55648;DHT22;45266;48.756;9.246;2022-11-11T06:55:41;2.20;99.90
55648;DHT22;45266;48.756;9.246;2022-11-11T06:56:46;2.20;99.90
55648;DHT22;45266;48.756;9.246;2022-11-11T06:57:48;2.20;99.90
55648;DHT22;45266;48.756;9.246;2022-11-11T06:58:50;2.20;99.90
55648;DHT22;45266;48.756;9.246;2022-11-11T06:59:52;2.20;99.90
55648;DHT22;45266;48.756;9.246;2022-11-11T07:00:54;2.20;99.90
55648;DHT22;45266;48.756;9.246;2022-11-11T07:01:55;2.20;99.90
55648;DHT22;45266;48.756;9.246;2022-11-11T07:02:57;2.30;99.90
55648;DHT22;45266;48.756;9.246;2022-11-11T07:03:59;2.30;99.90
55648;DHT22;45266;48.756;9.246;2022-11-11T07:05:01;2.30;99.90
55648;DHT22;45266;48.756;9.246;2022-11-11T07:06:04;2.30;99.90
55648;DHT22;45266;48.756;9.246;2022-11-11T07:07:06;2.30;99.90